Time;durP1;ratioP1;P1;durP2;ratioP2;P2;SDS_P1;SDS_P2;PMS_P1;PMS_P2;Temp;Humidity;BMP_temperature;BMP_pressure;BME280_temperature;BME280_humidity;BME280_pressure;Samples;Min_cycle;Max_cycle;Signal;HPM_P1;HPM_P2
2022/10/16 00:08:22;;;;;;;12.13;5.57;;;16.10;97.40;;;;;;5089439;28;20399;-83
2022/10/16 00:17:33;;;;;;;8.57;4.77;;;16.20;98.00;;;;;;5091173;28;20363;-88
2022/10/16 00:20:08;;;;;;;6.33;3.80;;;16.20;96.40;;;;;;5084521;28;20418;-88
2022/10/16 00:23:19;;;;;;;8.50;4.87;;;16.20;95.40;;;;;;5102123;28;20441;-88
2022/10/16 00:32:29;;;;;;;13.93;4.90;;;16.30;93.80;;;;;;5083547;28;20493;-85
2022/10/16 00:35:14;;;;;;;8.70;4.53;;;16.30;93.70;;;;;;5084000;28;20861;-84
2022/10/16 00:41:02;;;;;;;8.80;4.40;;;16.40;96.00;;;;;;5088042;28;20504;-84
2022/10/16 00:47:37;;;;;;;5.10;3.97;;;16.40;93.80;;;;;;5074809;28;20152;-83
2022/10/16 00:50:28;;;;;;;7.47;4.33;;;16.50;92.60;;;;;;4996168;28;20435;-84
2022/10/16 00:56:15;;;;;;;6.83;3.47;;;16.40;95.40;;;;;;4992972;28;20506;-85
2022/10/16 01:02:32;;;;;;;12.97;3.33;;;16.40;97.00;;;;;;4994934;28;20570;-84
2022/10/16 01:05:38;;;;;;;6.20;3.33;;;16.40;96.70;;;;;;4996844;28;20395;-88
2022/10/16 01:08:44;;;;;;;5.70;2.60;;;16.40;96.10;;;;;;4991487;28;20411;-88
2022/10/16 01:14:54;;;;;;;5.90;3.10;;;16.50;96.40;;;;;;5004787;28;20404;-87
2022/10/16 01:24:16;;;;;;;5.37;2.77;;;16.60;93.40;;;;;;5085038;28;20450;-88
2022/10/16 01:30:50;;;;;;;9.50;3.00;;;16.50;90.90;;;;;;5074163;28;20771;-88
2022/10/16 01:36:41;;;;;;;2.90;2.70;;;16.50;94.10;;;;;;5086502;28;20442;-87
2022/10/16 01:39:39;;;;;;;5.47;2.70;;;16.50;93.60;;;;;;5083171;28;20473;-88
2022/10/16 01:45:29;;;;;;;5.23;2.30;;;16.60;90.60;;;;;;5088531;28;20401;-89
2022/10/16 01:48:07;;;;;;;2.00;1.90;;;16.50;88.20;;;;;;5079992;28;20982;-88
2022/10/16 01:54:09;;;;;;;2.67;1.67;;;16.60;86.90;;;;;;5073812;28;20371;-88
2022/10/16 02:03:19;;;;;;;3.93;1.50;;;16.40;86.30;;;;;;5088579;28;20480;-85
2022/10/16 02:09:08;;;;;;;7.37;1.97;;;16.50;83.60;;;;;;5086333;28;20365;-84
2022/10/16 02:11:56;;;;;;;4.43;1.90;;;16.50;78.30;;;;;;5082987;28;20920;-84
2022/10/16 02:14:50;;;;;;;12.17;1.97;;;16.40;76.40;;;;;;5077440;28;20480;-84
2022/10/16 02:18:02;;;;;;;1.63;1.30;;;16.40;77.30;;;;;;5093587;28;20419;-83
2022/10/16 02:23:55;;;;;;;1.50;1.40;;;16.30;73.20;;;;;;5087559;28;21033;-88
2022/10/16 02:26:35;;;;;;;2.17;1.20;;;16.30;74.40;;;;;;5081036;28;20484;-88
2022/10/16 02:35:47;;;;;;;4.63;1.40;;;16.40;58.30;;;;;;5090778;28;20474;-88
2022/10/16 02:41:50;;;;;;;6.53;1.13;;;16.40;47.60;;;;;;5077855;28;20458;-87
2022/10/16 02:48:02;;;;;;;1.33;1.23;;;16.20;47.40;;;;;;5077247;28;20399;-88
2022/10/16 02:53:50;;;;;;;2.50;0.90;;;16.30;47.70;;;;;;5090543;28;20387;-84
2022/10/16 03:03:00;;;;;;;2.60;1.20;;;16.40;47.50;;;;;;5083452;28;20577;-83
2022/10/16 03:08:47;;;;;;;9.50;1.00;;;16.30;47.50;;;;;;5090623;28;20224;-88
2022/10/16 03:11:56;;;;;;;2.10;1.20;;;16.40;47.80;;;;;;5095906;28;20421;-88
2022/10/16 03:17:45;;;;;;;3.03;1.00;;;16.50;47.70;;;;;;5089440;28;20387;-88
2022/10/16 03:23:32;;;;;;;5.37;1.10;;;16.50;47.90;;;;;;5096369;28;20467;-88
2022/10/16 03:29:20;;;;;;;2.13;1.00;;;16.50;47.70;;;;;;5083395;28;20182;-88
2022/10/16 03:38:33;;;;;;;18.30;1.63;;;16.50;47.60;;;;;;5080198;28;20829;-84
2022/10/16 03:48:08;;;;;;;2.70;1.00;;;16.50;47.70;;;;;;5086305;28;20419;-84
2022/10/16 03:53:55;;;;;;;4.00;1.13;;;16.50;47.70;;;;;;5077964;28;20437;-88
2022/10/16 03:56:21;;;;;;;7.90;1.73;;;16.50;51.90;;;;;;5091904;28;20420;-88
2022/10/16 03:58:50;;;;;;;1.90;0.97;;;16.50;47.80;;;;;;5090908;28;20257;-87
2022/10/16 04:08:00;;;;;;;3.17;0.93;;;16.60;47.70;;;;;;5091285;28;20385;-87
2022/10/16 04:14:21;;;;;;;4.60;1.53;;;16.70;47.90;;;;;;5092606;28;20185;-87
2022/10/16 04:23:31;;;;;;;4.53;1.30;;;16.70;39.70;;;;;;5093085;28;20463;-84
2022/10/16 04:26:50;;;;;;;4.10;1.07;;;16.70;36.80;;;;;;5090979;28;20388;-84
2022/10/16 04:36:00;;;;;;;2.73;1.10;;;16.60;45.50;;;;;;5092967;28;20405;-84
2022/10/16 04:51:54;;;;;;;1.87;1.30;;;16.60;40.30;;;;;;5077272;28;20450;-88
2022/10/16 05:01:03;;;;;;;3.23;1.20;;;16.80;28.60;;;;;;5084659;28;21115;-87
2022/10/16 05:03:38;;;;;;;4.00;1.27;;;16.80;26.20;;;;;;5078992;28;20465;-87
2022/10/16 05:09:26;;;;;;;8.63;1.10;;;16.80;25.00;;;;;;5074094;28;20353;-83
2022/10/16 05:12:32;;;;;;;1.33;1.10;;;16.80;23.00;;;;;;5081391;28;20396;-83
2022/10/16 05:15:44;;;;;;;3.43;1.10;;;16.90;22.60;;;;;;5084957;28;20180;-83
2022/10/16 05:21:32;;;;;;;4.40;1.10;;;16.90;20.10;;;;;;5075044;28;20393;-81
2022/10/16 05:23:57;;;;;;;1.33;1.20;;;16.90;19.40;;;;;;5086815;28;20791;-82
2022/10/16 05:26:23;;;;;;;6.77;0.90;;;16.90;18.20;;;;;;5083869;28;20186;-82
2022/10/16 05:28:56;;;;;;;1.20;1.10;;;16.90;18.90;;;;;;5080300;28;20259;-81
2022/10/16 05:31:56;;;;;;;3.00;0.90;;;16.90;19.40;;;;;;5074132;28;20642;-81
2022/10/16 05:34:33;;;;;;;17.93;1.37;;;16.90;20.20;;;;;;5086605;28;20444;-81
2022/10/16 05:36:59;;;;;;;10.57;1.23;;;16.90;19.80;;;;;;5083301;28;20414;-82
2022/10/16 05:39:44;;;;;;;6.73;1.10;;;16.90;17.90;;;;;;5088098;28;20948;-81
2022/10/16 05:45:32;;;;;;;3.77;1.10;;;16.80;17.40;;;;;;5073926;28;20459;-81
2022/10/16 05:48:32;;;;;;;6.63;1.27;;;16.80;17.00;;;;;;5074405;28;20412;-81
2022/10/16 05:51:00;;;;;;;5.80;1.50;;;16.70;16.10;;;;;;5073755;28;20149;-81
2022/10/16 05:56:47;;;;;;;16.67;2.47;;;16.70;17.30;;;;;;5089937;28;20364;-81
2022/10/16 05:59:13;;;;;;;5.60;1.30;;;16.70;17.70;;;;;;5073261;28;20415;-82
2022/10/16 06:02:11;;;;;;;3.73;1.00;;;16.70;18.80;;;;;;5085665;28;20270;-80
2022/10/16 06:05:08;;;;;;;8.60;1.30;;;16.80;19.60;;;;;;5086615;28;20195;-80
2022/10/16 06:11:04;;;;;;;8.67;1.27;;;16.80;21.20;;;;;;5074703;28;20393;-80
2022/10/16 06:14:06;;;;;;;5.20;1.40;;;16.80;21.00;;;;;;5082860;28;20425;-80
2022/10/16 06:17:08;;;;;;;4.17;1.80;;;16.80;21.70;;;;;;5090193;28;20874;-80
2022/10/16 06:19:34;;;;;;;3.60;1.40;;;16.80;22.70;;;;;;5077568;28;20432;-77
2022/10/16 06:22:04;;;;;;;3.83;1.63;;;16.80;22.50;;;;;;5073567;28;20484;-76
2022/10/16 06:24:38;;;;;;;7.27;2.13;;;16.90;22.70;;;;;;5074992;28;20466;-77
2022/10/16 06:27:09;;;;;;;116.27;66.87;;;16.90;23.30;;;;;;5083169;28;20970;-80
2022/10/16 06:29:34;;;;;;;108.60;61.53;;;16.90;24.60;;;;;;5077636;28;20417;-80
2022/10/16 06:35:33;;;;;;;146.53;77.13;;;17.00;27.50;;;;;;5072789;28;20182;-80
2022/10/16 06:42:08;;;;;;;98.97;48.00;;;17.10;32.80;;;;;;5086116;28;20874;-79
2022/10/16 06:45:02;;;;;;;723.47;481.53;;;17.10;33.90;;;;;;5083043;28;20751;-80
2022/10/16 06:51:11;;;;;;;142.17;70.83;;;17.10;37.80;;;;;;5076338;28;20704;-76
2022/10/16 06:53:42;;;;;;;73.00;40.77;;;17.20;36.70;;;;;;5088985;28;20880;-75
2022/10/16 06:56:12;;;;;;;455.43;289.47;;;17.20;33.10;;;;;;5076357;28;20904;-75
2022/10/16 06:58:46;;;;;;;407.10;215.50;;;17.30;31.70;;;;;;5091140;28;20820;-75
2022/10/16 07:01:38;;;;;;;40.67;17.00;;;17.40;31.60;;;;;;5088832;28;20390;-78
2022/10/16 07:04:04;;;;;;;35.33;22.07;;;17.40;30.10;;;;;;5083856;28;20427;-75
2022/10/16 07:06:39;;;;;;;76.27;47.10;;;17.40;28.90;;;;;;5082948;28;20439;-75
2022/10/16 07:09:15;;;;;;;15.90;11.13;;;17.50;28.60;;;;;;5085385;28;20167;-78
2022/10/16 07:11:51;;;;;;;25.90;17.93;;;17.60;28.00;;;;;;5078264;28;20776;-75
2022/10/16 07:14:56;;;;;;;5.47;4.60;;;17.70;27.40;;;;;;5084494;28;20429;-78
2022/10/16 07:17:38;;;;;;;13.47;5.03;;;17.60;26.10;;;;;;5083919;28;20425;-78
2022/10/16 07:20:56;;;;;;;31.53;22.17;;;17.70;24.30;;;;;;5075775;28;20731;-80
2022/10/16 07:23:22;;;;;;;9.90;6.17;;;17.80;19.40;;;;;;5080464;28;20459;-78
2022/10/16 07:25:56;;;;;;;5.30;3.60;;;17.90;18.20;;;;;;5077162;28;20410;-77
2022/10/16 07:29:08;;;;;;;8.80;3.30;;;17.90;15.30;;;;;;5075827;28;20225;-77
2022/10/16 07:31:39;;;;;;;4.73;3.83;;;17.90;14.70;;;;;;5083063;28;20389;-77
2022/10/16 07:37:27;;;;;;;15.43;5.03;;;17.90;12.00;;;;;;5090095;28;20469;-77
2022/10/16 07:40:26;;;;;;;7.20;2.90;;;17.90;11.90;;;;;;5094746;28;20405;-77
2022/10/16 07:42:57;;;;;;;8.67;4.83;;;18.00;12.60;;;;;;5084815;28;20193;-77
2022/10/16 07:49:03;;;;;;;15.17;11.50;;;17.90;15.10;;;;;;5076134;28;20430;-77
2022/10/16 07:51:39;;;;;;;9.70;5.20;;;18.10;13.80;;;;;;5088577;28;20909;-77
2022/10/16 07:54:04;;;;;;;3.10;2.90;;;18.10;11.80;;;;;;5080768;28;20915;-75
2022/10/16 07:56:32;;;;;;;9.83;5.43;;;18.20;10.60;;;;;;5093357;28;20386;-75
2022/10/16 07:59:09;;;;;;;13.30;4.20;;;18.10;8.70;;;;;;5082449;28;20184;-75
2022/10/16 08:01:38;;;;;;;3.70;3.37;;;18.20;9.60;;;;;;5088202;28;20419;-75
2022/10/16 08:04:09;;;;;;;5.27;3.20;;;18.40;7.60;;;;;;5074746;28;20428;-75
2022/10/16 08:06:37;;;;;;;17.97;9.37;;;18.40;4.50;;;;;;5075338;28;20411;-75
2022/10/16 08:09:05;;;;;;;6.30;4.33;;;18.50;2.90;;;;;;5085935;28;20431;-75
2022/10/16 08:11:31;;;;;;;10.70;3.50;;;18.50;1.20;;;;;;5075264;28;20367;-77
2022/10/16 08:13:57;;;;;;;14.00;3.67;;;18.40;1.00;;;;;;5075907;28;20435;-76
2022/10/16 08:16:26;;;;;;;9.97;4.03;;;18.50;1.00;;;;;;5075112;28;20434;-75
2022/10/16 08:18:57;;;;;;;8.30;4.63;;;18.50;1.00;;;;;;5075672;28;20517;-75
2022/10/16 08:21:23;;;;;;;9.67;4.23;;;18.40;1.00;;;;;;5077530;28;20480;-76
2022/10/16 08:23:50;;;;;;;7.40;4.17;;;18.30;1.00;;;;;;5081910;28;20927;-76
2022/10/16 08:26:32;;;;;;;25.27;12.47;;;18.40;1.00;;;;;;5084689;28;20421;-76
2022/10/16 08:35:42;;;;;;;20.97;14.13;;;18.30;1.70;;;;;;5087897;28;20386;-78
2022/10/16 08:38:38;;;;;;;7.00;5.70;;;18.30;1.70;;;;;;5086745;28;20370;-78
2022/10/16 08:41:46;;;;;;;8.43;6.50;;;18.30;3.10;;;;;;5080594;28;20164;-78
2022/10/16 08:44:28;;;;;;;7.80;5.67;;;18.40;3.30;;;;;;4995146;28;20451;-78
2022/10/16 08:50:27;;;;;;;8.00;6.27;;;18.50;2.80;;;;;;4999508;28;20840;-78
2022/10/16 08:52:55;;;;;;;9.47;6.10;;;18.50;1.00;;;;;;5012065;28;20396;-76
2022/10/16 08:55:46;;;;;;;11.20;6.70;;;18.50;1.00;;;;;;5012585;28;20398;-76
2022/10/16 08:58:32;;;;;;;8.67;6.70;;;18.50;1.00;;;;;;5011895;28;20430;-76
2022/10/16 09:01:18;;;;;;;15.10;9.50;;;18.50;1.00;;;;;;5012334;28;20423;-76
2022/10/16 09:04:19;;;;;;;13.73;6.30;;;18.50;1.00;;;;;;4994985;28;20490;-76
2022/10/16 09:10:32;;;;;;;11.00;8.90;;;18.40;1.00;;;;;;5007945;28;20470;-76
2022/10/16 09:13:03;;;;;;;13.43;9.30;;;18.20;2.50;;;;;;5011890;28;20394;-75
2022/10/16 09:15:35;;;;;;;14.77;9.67;;;18.20;3.40;;;;;;5012017;28;20418;-75
2022/10/16 09:18:12;;;;;;;13.23;10.17;;;18.30;4.60;;;;;;5035846;28;20794;-75
2022/10/16 09:20:41;;;;;;;14.07;9.60;;;18.40;5.00;;;;;;5077911;28;20442;-75
2022/10/16 09:23:17;;;;;;;16.17;9.57;;;18.20;4.80;;;;;;5089115;28;20443;-74
2022/10/16 09:26:12;;;;;;;14.13;10.17;;;18.30;4.50;;;;;;5080045;28;20442;-75
2022/10/16 09:28:38;;;;;;;17.70;10.10;;;18.40;2.60;;;;;;5073844;28;20458;-76
2022/10/16 09:31:05;;;;;;;14.40;11.00;;;18.40;2.10;;;;;;5087331;28;21063;-76
2022/10/16 09:33:40;;;;;;;15.50;10.53;;;18.40;1.30;;;;;;5080670;28;20422;-76
2022/10/16 09:36:11;;;;;;;13.40;10.17;;;18.40;1.00;;;;;;5078569;28;20423;-76
2022/10/16 09:39:08;;;;;;;12.30;9.37;;;18.40;1.00;;;;;;5103985;28;20914;-76
2022/10/16 09:41:56;;;;;;;34.60;12.43;;;18.40;1.00;;;;;;5080627;28;20474;-75
2022/10/16 09:44:30;;;;;;;22.20;11.43;;;18.30;3.50;;;;;;5079010;28;20795;-75
2022/10/16 09:47:12;;;;;;;22.00;10.70;;;18.40;4.10;;;;;;5087049;28;20491;-75
2022/10/16 09:49:38;;;;;;;19.73;10.83;;;18.40;3.80;;;;;;5073931;28;20430;-75
2022/10/16 09:52:13;;;;;;;19.53;11.77;;;18.20;6.50;;;;;;5077358;28;20882;-75
2022/10/16 09:55:14;;;;;;;16.33;11.90;;;18.30;8.40;;;;;;5083151;28;20173;-76
2022/10/16 09:57:52;;;;;;;18.40;11.47;;;18.50;9.30;;;;;;5004842;28;20893;-76
2022/10/16 10:00:19;;;;;;;24.03;10.10;;;18.70;11.90;;;;;;5019878;28;20482;-77
2022/10/16 10:02:46;;;;;;;15.97;10.77;;;18.90;1.00;;;;;;4991658;28;20446;-76
2022/10/16 10:05:24;;;;;;;11.70;9.67;;;19.10;1.00;;;;;;5009478;28;20467;-75
2022/10/16 10:07:59;;;;;;;11.33;9.17;;;19.20;1.00;;;;;;5011298;28;20401;-76
2022/10/16 10:10:27;;;;;;;12.23;9.97;;;19.10;1.00;;;;;;5011865;28;20414;-76
2022/10/16 10:13:29;;;;;;;13.20;10.00;;;19.20;1.00;;;;;;5025512;28;20422;-76
2022/10/16 10:16:23;;;;;;;10.03;7.73;;;19.20;1.00;;;;;;4927830;29;20435;-76
2022/10/16 10:19:00;;;;;;;8.77;6.73;;;19.30;1.00;;;;;;4910768;29;20423;-76
2022/10/16 10:21:27;;;;;;;16.33;5.73;;;19.30;1.00;;;;;;4928719;29;20438;-76
2022/10/16 10:23:56;;;;;;;10.20;3.40;;;19.40;1.00;;;;;;4907211;29;20899;-77
2022/10/16 10:26:30;;;;;;;3.53;3.00;;;19.40;1.00;;;;;;4919057;29;20432;-76
2022/10/16 10:29:02;;;;;;;3.33;2.90;;;19.40;1.00;;;;;;4934417;29;20962;-76
2022/10/16 10:31:34;;;;;;;3.10;2.83;;;19.40;1.00;;;;;;4919946;29;20410;-76
2022/10/16 10:34:21;;;;;;;7.53;2.77;;;19.50;1.00;;;;;;4947499;28;20494;-75
2022/10/16 10:37:02;;;;;;;4.03;2.10;;;19.60;1.00;;;;;;4991447;28;20783;-76
2022/10/16 10:40:00;;;;;;;5.90;2.47;;;19.70;1.00;;;;;;5004513;28;20502;-75
2022/10/16 10:42:56;;;;;;;9.43;3.07;;;19.80;1.00;;;;;;4995736;28;20463;-76
2022/10/16 10:45:46;;;;;;;8.77;4.27;;;19.90;1.00;;;;;;4995172;28;20409;-76
2022/10/16 10:48:23;;;;;;;5.83;4.90;;;20.10;1.00;;;;;;4994451;28;20442;-76
2022/10/16 10:51:21;;;;;;;7.37;4.73;;;20.40;1.00;;;;;;5067293;28;20481;-76
2022/10/16 10:54:02;;;;;;;8.00;6.20;;;20.80;1.00;;;;;;5084753;28;20404;-76
2022/10/16 10:56:52;;;;;;;11.33;7.00;;;21.20;1.00;;;;;;5083336;28;20418;-76
2022/10/16 10:59:33;;;;;;;7.10;6.40;;;21.40;1.00;;;;;;5077304;28;20509;-76
2022/10/16 11:02:44;;;;;;;8.20;6.40;;;21.60;1.00;;;;;;5076427;28;20956;-77
2022/10/16 11:05:28;;;;;;;7.23;6.20;;;21.70;1.00;;;;;;5084480;28;20509;-76
2022/10/16 11:11:37;;;;;;;8.70;7.27;;;21.50;1.00;;;;;;5076549;28;20425;-76
2022/10/16 11:14:25;;;;;;;9.10;8.20;;;21.40;1.00;;;;;;5076592;28;20951;-76
2022/10/16 11:17:30;;;;;;;10.60;7.60;;;21.40;1.00;;;;;;5086710;28;20977;-76
2022/10/16 11:20:32;;;;;;;12.80;6.97;;;21.40;1.00;;;;;;5087270;28;20886;-76
2022/10/16 11:23:11;;;;;;;10.00;6.30;;;21.70;1.00;;;;;;5014120;28;20976;-76
2022/10/16 11:25:59;;;;;;;7.47;6.27;;;21.90;1.00;;;;;;5013962;28;20481;-76
2022/10/16 11:28:39;;;;;;;8.50;6.33;;;22.00;1.00;;;;;;4988782;28;20422;-76
2022/10/16 11:31:32;;;;;;;11.20;5.93;;;21.70;1.00;;;;;;5013755;28;20417;-76
2022/10/16 11:34:21;;;;;;;6.03;5.10;;;22.00;1.00;;;;;;4938092;29;20409;-77
2022/10/16 11:37:12;;;;;;;8.30;4.70;;;22.20;1.00;;;;;;4936365;29;20462;-76
2022/10/16 11:40:20;;;;;;;8.53;5.00;;;22.10;1.00;;;;;;4934192;29;20442;-78
2022/10/16 11:43:26;;;;;;;4.60;4.20;;;22.20;1.00;;;;;;4943060;29;20462;-77
2022/10/16 11:46:11;;;;;;;15.93;3.70;;;22.20;1.00;;;;;;4936764;29;20527;-76
2022/10/16 11:48:51;;;;;;;4.67;3.90;;;22.30;1.00;;;;;;4934842;29;20495;-75
2022/10/16 11:51:38;;;;;;;5.33;3.80;;;22.00;1.00;;;;;;4945027;29;20456;-77
2022/10/16 11:54:14;;;;;;;4.07;3.67;;;22.10;1.00;;;;;;4935839;29;20442;-76
2022/10/16 11:56:43;;;;;;;5.47;3.67;;;22.10;1.00;;;;;;4937075;29;20456;-76
2022/10/16 11:59:33;;;;;;;5.83;3.37;;;22.10;1.00;;;;;;4969721;28;20481;-76
2022/10/16 12:02:30;;;;;;;4.83;3.00;;;22.20;1.00;;;;;;5029448;28;20994;-75
2022/10/16 12:08:18;;;;;;;5.20;2.90;;;22.00;1.00;;;;;;5023038;28;20792;-75
2022/10/16 12:10:46;;;;;;;7.53;2.90;;;21.80;1.00;;;;;;5039460;28;21057;-76
2022/10/16 12:13:47;;;;;;;3.67;2.70;;;21.60;1.00;;;;;;5091579;28;20418;-76
2022/10/16 12:16:13;;;;;;;2.47;2.37;;;21.70;1.00;;;;;;5080545;28;20423;-77
2022/10/16 12:18:41;;;;;;;2.60;2.40;;;21.80;1.00;;;;;;5089822;28;20620;-77
2022/10/16 12:21:07;;;;;;;2.43;2.23;;;21.90;1.00;;;;;;5089943;28;20184;-76
2022/10/16 12:23:37;;;;;;;7.03;2.43;;;21.90;1.00;;;;;;5083271;28;20447;-78
2022/10/16 12:26:05;;;;;;;2.00;1.80;;;21.90;1.00;;;;;;5074748;28;20419;-77
2022/10/16 12:29:09;;;;;;;2.60;1.87;;;21.70;1.00;;;;;;5078860;28;20412;-77
2022/10/16 12:31:47;;;;;;;2.30;2.00;;;21.80;1.00;;;;;;5074638;28;20440;-80
2022/10/16 12:34:28;;;;;;;2.00;1.60;;;21.90;1.00;;;;;;5082218;28;20502;-75
2022/10/16 12:36:55;;;;;;;7.23;1.93;;;21.90;1.00;;;;;;5079582;28;20408;-75
2022/10/16 12:39:23;;;;;;;1.73;1.63;;;22.00;1.00;;;;;;5074614;28;20898;-76
2022/10/16 12:42:02;;;;;;;2.80;1.70;;;22.00;1.00;;;;;;5082530;28;20710;-76
2022/10/16 12:44:32;;;;;;;2.50;1.67;;;22.20;1.00;;;;;;5084868;28;20422;-76
2022/10/16 12:47:03;;;;;;;2.13;1.60;;;22.30;1.00;;;;;;5090252;28;20439;-76
2022/10/16 12:49:38;;;;;;;4.47;1.77;;;22.30;1.00;;;;;;5074581;28;20372;-75
2022/10/16 12:52:36;;;;;;;1.73;1.63;;;22.40;1.00;;;;;;5074421;28;20437;-76
2022/10/16 12:55:05;;;;;;;2.40;1.70;;;22.50;1.00;;;;;;5007674;28;20442;-75
2022/10/16 12:57:52;;;;;;;2.10;1.50;;;22.50;1.00;;;;;;5004050;28;20441;-76
2022/10/16 13:00:32;;;;;;;21.47;2.27;;;22.60;1.00;;;;;;5000622;28;20436;-75
2022/10/16 13:03:03;;;;;;;6.53;1.80;;;22.60;1.00;;;;;;5012112;28;20459;-76
2022/10/16 13:05:58;;;;;;;6.27;1.43;;;22.60;1.00;;;;;;4997278;28;20431;-77
2022/10/16 13:08:38;;;;;;;1.63;1.53;;;22.50;1.00;;;;;;5010697;28;20459;-77
2022/10/16 13:11:55;;;;;;;2.90;1.50;;;22.50;1.00;;;;;;5010518;28;20950;-79
2022/10/16 13:14:39;;;;;;;9.93;1.90;;;22.50;1.00;;;;;;4951489;29;20481;-77
2022/10/16 13:17:39;;;;;;;1.23;1.23;;;22.40;1.00;;;;;;4948898;29;20435;-78
2022/10/16 13:20:41;;;;;;;1.63;1.53;;;22.50;1.00;;;;;;4929340;29;20450;-79
2022/10/16 13:23:25;;;;;;;3.83;1.50;;;22.40;1.00;;;;;;4955672;28;20472;-77
2022/10/16 13:26:26;;;;;;;5.50;1.80;;;22.40;1.00;;;;;;4947823;28;20446;-79
2022/10/16 13:29:04;;;;;;;4.77;1.40;;;22.40;1.00;;;;;;4953747;29;20976;-79
2022/10/16 13:31:40;;;;;;;15.77;1.77;;;22.40;1.00;;;;;;4973367;28;20533;-79
2022/10/16 13:34:31;;;;;;;4.97;1.47;;;22.30;1.00;;;;;;4989996;28;20928;-79
2022/10/16 13:37:21;;;;;;;6.00;1.40;;;22.30;1.00;;;;;;5021490;28;20457;-80
2022/10/16 13:40:01;;;;;;;1.53;1.27;;;22.30;1.00;;;;;;5012437;28;20434;-80
2022/10/16 13:42:29;;;;;;;2.47;1.47;;;22.40;1.00;;;;;;5007084;28;20438;-78
2022/10/16 13:44:56;;;;;;;2.50;0.90;;;22.50;1.00;;;;;;5006215;28;21127;-79
2022/10/16 13:48:17;;;;;;;5.77;1.20;;;22.60;1.00;;;;;;5009909;28;20436;-78
2022/10/16 13:51:06;;;;;;;3.93;1.33;;;22.70;1.00;;;;;;5015254;28;20435;-78
2022/10/16 13:54:09;;;;;;;8.07;1.50;;;22.70;1.00;;;;;;5021734;28;20825;-80
2022/10/16 13:56:45;;;;;;;8.83;1.20;;;22.70;1.00;;;;;;5033494;28;20931;-80
2022/10/16 14:02:39;;;;;;;1.50;1.40;;;22.70;1.00;;;;;;5033006;28;20473;-78
2022/10/16 14:05:21;;;;;;;2.53;1.30;;;22.70;1.00;;;;;;5025814;28;20435;-78
2022/10/16 14:11:09;;;;;;;3.30;1.67;;;22.50;1.00;;;;;;5031696;28;20425;-79
2022/10/16 14:13:39;;;;;;;1.93;1.20;;;22.40;1.00;;;;;;5028787;28;20424;-78
2022/10/16 14:16:46;;;;;;;3.60;1.27;;;22.30;1.00;;;;;;5035408;28;20179;-79
2022/10/16 14:19:30;;;;;;;5.07;1.93;;;22.20;1.00;;;;;;5035117;28;20411;-79
2022/10/16 14:21:59;;;;;;;5.23;1.70;;;22.00;1.00;;;;;;5028549;28;20415;-78
2022/10/16 14:24:35;;;;;;;9.90;2.17;;;22.00;1.00;;;;;;5051644;28;20442;-79
2022/10/16 14:27:01;;;;;;;2.90;1.43;;;21.90;1.00;;;;;;5096397;28;20476;-78
2022/10/16 14:30:08;;;;;;;2.50;1.83;;;21.80;1.00;;;;;;5080710;28;20526;-78
2022/10/16 14:32:42;;;;;;;16.70;2.17;;;21.70;1.00;;;;;;5076710;28;20384;-78
2022/10/16 14:35:43;;;;;;;6.83;1.60;;;21.70;1.00;;;;;;5082997;28;20922;-78
2022/10/16 14:41:43;;;;;;;9.13;1.60;;;21.80;1.00;;;;;;4997594;28;20416;-78
2022/10/16 14:47:50;;;;;;;10.60;1.67;;;21.90;1.00;;;;;;5014382;28;20461;-78
2022/10/16 14:50:39;;;;;;;6.50;1.90;;;22.00;1.00;;;;;;5005309;28;20446;-78
2022/10/16 14:53:17;;;;;;;10.13;1.70;;;22.00;1.00;;;;;;4995096;28;20483;-78
2022/10/16 14:55:57;;;;;;;5.97;1.60;;;22.00;1.00;;;;;;5013706;28;20483;-78
2022/10/16 14:58:39;;;;;;;12.30;1.70;;;22.00;1.00;;;;;;5013059;28;20881;-78
2022/10/16 15:01:39;;;;;;;14.20;1.70;;;22.00;1.00;;;;;;4995245;28;20912;-79
2022/10/16 15:04:16;;;;;;;6.57;1.83;;;22.00;1.00;;;;;;5002094;28;20534;-78
2022/10/16 15:06:45;;;;;;;3.17;1.67;;;22.00;1.00;;;;;;5013519;28;20456;-78
2022/10/16 15:12:33;;;;;;;7.40;1.80;;;22.00;1.00;;;;;;5014194;28;20509;-79
2022/10/16 15:15:37;;;;;;;28.43;2.97;;;22.00;1.00;;;;;;5084220;28;20426;-80
2022/10/16 15:18:04;;;;;;;44.83;4.20;;;22.20;1.00;;;;;;5091107;28;20423;-80
2022/10/16 15:23:52;;;;;;;4.93;1.63;;;22.30;1.00;;;;;;5075263;28;20487;-79
2022/10/16 15:27:09;;;;;;;12.73;2.03;;;22.30;1.00;;;;;;5092693;28;20806;-80
2022/10/16 15:32:56;;;;;;;6.73;1.70;;;22.10;1.00;;;;;;5077955;28;20456;-77
2022/10/16 15:35:33;;;;;;;7.40;2.13;;;22.00;1.00;;;;;;5088581;28;20919;-79
2022/10/16 15:38:21;;;;;;;16.80;2.10;;;22.00;1.00;;;;;;5080469;28;20893;-79
2022/10/16 15:44:45;;;;;;;8.70;2.83;;;21.80;1.00;;;;;;5082723;28;21175;-78
2022/10/16 15:47:11;;;;;;;12.67;2.00;;;21.60;1.00;;;;;;5081553;28;20443;-76
2022/10/16 15:50:03;;;;;;;10.17;2.10;;;21.50;1.00;;;;;;5084290;28;20438;-77
2022/10/16 15:52:45;;;;;;;7.20;2.00;;;21.40;1.00;;;;;;5075391;28;20708;-76
2022/10/16 15:55:13;;;;;;;18.53;2.23;;;21.20;1.00;;;;;;5076525;28;20411;-76
2022/10/16 15:58:09;;;;;;;3.17;1.63;;;21.10;1.00;;;;;;5089187;28;20498;-76
2022/10/16 16:00:58;;;;;;;9.80;2.13;;;21.00;1.00;;;;;;5079917;28;20429;-77
2022/10/16 16:03:23;;;;;;;13.33;2.60;;;20.90;1.00;;;;;;5095499;28;20445;-77
2022/10/16 16:06:06;;;;;;;8.00;2.30;;;20.80;1.00;;;;;;5088589;28;20406;-77
2022/10/16 16:08:34;;;;;;;9.63;2.00;;;20.70;1.00;;;;;;5077106;28;20166;-78
2022/10/16 16:11:52;;;;;;;12.00;2.70;;;20.70;1.00;;;;;;5085920;28;20754;-83
2022/10/16 16:17:39;;;;;;;20.67;3.23;;;20.50;1.00;;;;;;5084585;28;20567;-79
2022/10/16 16:20:33;;;;;;;6.17;2.53;;;20.40;1.00;;;;;;5086179;28;20509;-79
2022/10/16 16:23:03;;;;;;;9.30;2.20;;;20.30;1.00;;;;;;5074930;28;20203;-80
2022/10/16 16:26:04;;;;;;;11.90;3.13;;;20.20;1.00;;;;;;5075201;28;20781;-79
2022/10/16 16:32:21;;;;;;;5.43;2.83;;;20.00;1.00;;;;;;5085193;28;20432;-79
2022/10/16 16:34:57;;;;;;;10.60;3.30;;;19.90;1.00;;;;;;5083392;28;20419;-76
2022/10/16 16:40:51;;;;;;;10.80;3.07;;;19.70;1.00;;;;;;5074565;28;20734;-76
2022/10/16 16:43:18;;;;;;;17.37;2.80;;;19.60;1.00;;;;;;5077886;28;20950;-75
2022/10/16 16:45:45;;;;;;;6.67;3.10;;;19.50;1.00;;;;;;5090464;28;20410;-75
2022/10/16 16:48:15;;;;;;;6.30;2.50;;;19.50;1.00;;;;;;5114794;28;20867;-75
2022/10/16 16:50:45;;;;;;;4.40;2.63;;;19.40;1.00;;;;;;5089376;28;20438;-76
2022/10/16 16:53:34;;;;;;;11.10;3.87;;;19.30;1.00;;;;;;5078825;28;20437;-75
2022/10/16 16:56:04;;;;;;;8.70;3.37;;;19.30;1.00;;;;;;5081848;28;20721;-76
2022/10/16 16:58:34;;;;;;;23.33;3.80;;;19.20;1.00;;;;;;5088981;28;20415;-76
2022/10/16 17:01:01;;;;;;;7.90;3.40;;;19.10;1.00;;;;;;5074680;28;20379;-77
2022/10/16 17:03:43;;;;;;;24.63;3.70;;;19.10;1.00;;;;;;5073954;28;20419;-77
2022/10/16 17:06:11;;;;;;;11.47;3.53;;;19.00;1.00;;;;;;5074123;28;20396;-78
2022/10/16 17:08:38;;;;;;;18.80;3.80;;;19.00;1.00;;;;;;5087272;28;20380;-77
2022/10/16 17:11:05;;;;;;;7.33;3.17;;;19.00;1.00;;;;;;5088405;28;20802;-77
2022/10/16 17:13:58;;;;;;;13.63;3.90;;;18.90;1.00;;;;;;5090086;28;20424;-79
2022/10/16 17:19:57;;;;;;;13.80;3.90;;;18.80;1.00;;;;;;5093814;28;20398;-78
2022/10/16 17:22:23;;;;;;;10.43;3.43;;;18.70;1.00;;;;;;5090439;28;20420;-78
2022/10/16 17:25:09;;;;;;;9.77;4.43;;;18.70;1.00;;;;;;5080131;28;20503;-78
2022/10/16 17:27:45;;;;;;;14.07;3.83;;;18.70;1.00;;;;;;5080210;28;20192;-78
2022/10/16 17:33:40;;;;;;;14.10;3.67;;;18.60;1.00;;;;;;5085570;28;20904;-78
2022/10/16 17:36:16;;;;;;;7.83;3.50;;;18.60;1.00;;;;;;5082175;28;20911;-79
2022/10/16 17:38:45;;;;;;;18.10;3.47;;;18.50;1.00;;;;;;5077191;28;20416;-80
2022/10/16 17:41:34;;;;;;;10.83;3.70;;;18.50;1.30;;;;;;5080360;28;20473;-78
2022/10/16 17:44:12;;;;;;;11.80;3.40;;;18.40;2.40;;;;;;5082303;28;20429;-79
2022/10/16 17:47:33;;;;;;;14.23;3.27;;;18.40;2.10;;;;;;5073725;28;20410;-78
2022/10/16 17:53:21;;;;;;;13.33;3.43;;;18.20;1.90;;;;;;5082163;28;20441;-79
2022/10/16 17:55:55;;;;;;;11.83;3.97;;;18.10;2.30;;;;;;5083372;28;20907;-79
2022/10/16 18:01:57;;;;;;;8.97;3.83;;;17.90;4.10;;;;;;5082489;28;20429;-80
2022/10/16 18:05:05;;;;;;;20.97;4.00;;;17.80;4.60;;;;;;5077893;28;20553;-81
2022/10/16 18:07:33;;;;;;;10.70;3.80;;;17.70;6.00;;;;;;5073114;28;20800;-80
2022/10/16 18:13:36;;;;;;;12.90;4.80;;;17.50;7.60;;;;;;5075368;28;20370;-79
2022/10/16 18:16:39;;;;;;;10.67;3.73;;;17.40;10.80;;;;;;5072811;28;20378;-80
2022/10/16 18:19:27;;;;;;;8.83;4.03;;;17.40;14.20;;;;;;5086464;28;20404;-81
2022/10/16 18:22:15;;;;;;;13.77;4.23;;;17.30;16.80;;;;;;5093416;28;20388;-81
2022/10/16 18:25:33;;;;;;;8.50;4.97;;;17.30;18.40;;;;;;5092953;28;20826;-82
2022/10/16 18:28:09;;;;;;;21.03;5.03;;;17.20;22.20;;;;;;5092090;28;20381;-80
2022/10/16 18:30:39;;;;;;;12.13;4.60;;;17.10;23.20;;;;;;5093215;28;20391;-80
2022/10/16 18:36:57;;;;;;;17.43;4.90;;;17.00;27.50;;;;;;5080133;28;20379;-88
2022/10/16 18:40:09;;;;;;;14.20;5.67;;;17.00;28.60;;;;;;5091528;28;20447;-88